createdAt,value
2023-03-07T00:02:02.316Z,18.17
2023-03-07T00:04:30.834Z,16.77
2023-03-07T00:06:59.284Z,14.37
2023-03-07T00:09:27.326Z,15.87
2023-03-07T00:11:56.158Z,16.60
2023-03-07T00:14:24.524Z,16.47
2023-03-07T00:16:53.217Z,17.20
2023-03-07T00:19:21.684Z,13.37
2023-03-07T00:21:50.381Z,12.07
2023-03-07T00:24:18.948Z,13.47
2023-03-07T00:26:47.553Z,10.77
2023-03-07T00:29:15.608Z,11.50
2023-03-07T00:31:44.376Z,10.97
2023-03-07T00:34:12.978Z,9.67
2023-03-07T00:36:41.408Z,10.23
2023-03-07T00:39:09.889Z,11.23
2023-03-07T00:41:38.338Z,11.13
2023-03-07T00:44:06.917Z,10.20
2023-03-07T00:46:35.329Z,9.00
2023-03-07T00:49:04.002Z,9.10
2023-03-07T00:51:32.532Z,8.97
2023-03-07T00:54:01.044Z,9.13
2023-03-07T00:56:29.600Z,9.77
2023-03-07T00:58:57.909Z,9.00
2023-03-07T01:01:27.153Z,11.47
2023-03-07T01:03:56.729Z,9.30
2023-03-07T01:06:26.318Z,10.50
2023-03-07T01:08:55.692Z,9.30
2023-03-07T01:11:24.480Z,10.43
2023-03-07T01:13:54.999Z,7.20
2023-03-07T01:16:24.329Z,10.17
2023-03-07T01:18:54.103Z,10.73
2023-03-07T01:21:23.969Z,9.17
2023-03-07T01:23:52.751Z,8.20
2023-03-07T01:26:25.643Z,8.50
2023-03-07T01:28:55.439Z,9.37
2023-03-07T01:31:24.248Z,9.83
2023-03-07T01:33:53.739Z,10.57
2023-03-07T01:36:31.592Z,10.13
2023-03-07T01:39:02.396Z,8.87
2023-03-07T01:41:32.909Z,9.60
2023-03-07T01:44:02.372Z,9.47
2023-03-07T01:46:50.308Z,9.93
2023-03-07T01:49:19.957Z,8.93
2023-03-07T01:51:52.886Z,10.00
2023-03-07T01:54:22.246Z,9.60
2023-03-07T01:56:50.319Z,9.63
2023-03-07T01:59:20.337Z,8.70
2023-03-07T02:01:50.051Z,10.27
2023-03-07T02:04:22.720Z,8.80
2023-03-07T02:06:51.190Z,9.43
2023-03-07T02:09:21.124Z,10.30
2023-03-07T02:11:49.292Z,10.63
2023-03-07T02:14:17.290Z,10.00
2023-03-07T02:16:46.210Z,10.87
2023-03-07T02:19:24.674Z,10.30
2023-03-07T02:21:54.686Z,9.30
2023-03-07T02:24:24.922Z,11.20
2023-03-07T02:26:56.515Z,10.80
2023-03-07T02:29:25.161Z,11.40
2023-03-07T02:31:53.107Z,8.77
2023-03-07T02:34:26.257Z,8.60
2023-03-07T02:36:56.538Z,10.23
2023-03-07T02:39:25.305Z,8.70
2023-03-07T02:41:55.512Z,8.40
2023-03-07T02:44:24.054Z,9.37
2023-03-07T02:46:53.007Z,8.37
2023-03-07T02:49:21.640Z,9.47
2023-03-07T02:51:50.189Z,9.13
2023-03-07T02:54:18.775Z,8.97
2023-03-07T02:56:47.770Z,8.97
2023-03-07T02:59:15.810Z,9.97
2023-03-07T03:01:44.515Z,10.30
2023-03-07T03:04:12.702Z,9.90
2023-03-07T03:06:40.780Z,11.87
2023-03-07T03:09:09.051Z,10.63
2023-03-07T03:11:37.322Z,11.30
2023-03-07T03:14:05.943Z,12.90
2023-03-07T03:16:34.247Z,10.67
2023-03-07T03:19:02.257Z,10.10
2023-03-07T03:21:30.356Z,14.13
2023-03-07T03:23:58.509Z,13.17
2023-03-07T03:26:26.942Z,12.47
2023-03-07T03:28:55.572Z,12.97
2023-03-07T03:31:25.427Z,13.33
2023-03-07T03:33:54.096Z,11.67
2023-03-07T03:36:23.877Z,12.90
2023-03-07T03:38:54.088Z,12.67
2023-03-07T03:41:23.079Z,14.40
2023-03-07T03:43:51.277Z,15.90
2023-03-07T03:46:20.918Z,16.10
2023-03-07T03:51:16.833Z,15.38
2023-03-07T03:53:45.425Z,16.57
2023-03-07T03:56:15.145Z,17.27
2023-03-07T04:01:11.894Z,10.90
2023-03-07T04:03:41.320Z,9.60
2023-03-07T04:06:10.887Z,11.23
2023-03-07T04:08:39.559Z,11.50
2023-03-07T04:11:08.263Z,11.53
2023-03-07T04:13:36.721Z,9.17
2023-03-07T04:16:05.816Z,10.17
2023-03-07T04:18:35.115Z,11.80
2023-03-07T04:21:03.717Z,12.33
2023-03-07T04:23:32.097Z,13.37
2023-03-07T04:26:02.151Z,16.07
2023-03-07T04:28:47.387Z,15.63
2023-03-07T04:31:20.145Z,16.27
2023-03-07T04:33:49.162Z,16.57
2023-03-07T04:36:18.141Z,14.47
2023-03-07T04:38:47.180Z,13.90
2023-03-07T04:41:16.618Z,15.00
2023-03-07T04:43:44.579Z,12.17
2023-03-07T04:46:14.233Z,12.80
2023-03-07T04:48:42.249Z,13.10
2023-03-07T04:51:10.999Z,13.00
2023-03-07T04:53:38.982Z,14.67
2023-03-07T04:56:08.886Z,13.23
2023-03-07T04:58:37.887Z,14.07
2023-03-07T05:01:06.753Z,13.77
2023-03-07T05:03:35.753Z,14.40
2023-03-07T05:06:05.425Z,14.00
2023-03-07T05:11:00.374Z,14.38
2023-03-07T05:13:28.616Z,13.47
2023-03-07T05:15:59.959Z,13.83
2023-03-07T05:18:28.788Z,14.03
2023-03-07T05:20:57.425Z,15.57
2023-03-07T05:23:26.176Z,16.30
2023-03-07T05:25:54.655Z,19.30
2023-03-07T05:28:23.142Z,21.87
2023-03-07T05:30:51.959Z,18.13
2023-03-07T05:33:21.029Z,19.70
2023-03-07T05:35:49.130Z,16.87
2023-03-07T05:38:17.816Z,16.60
2023-03-07T05:40:46.458Z,16.37
2023-03-07T05:43:14.736Z,18.00
2023-03-07T05:45:42.589Z,17.67
2023-03-07T05:48:11.106Z,14.23
2023-03-07T05:50:39.575Z,12.60
2023-03-07T05:53:08.262Z,13.63
2023-03-07T05:55:36.685Z,12.97
2023-03-07T05:58:05.355Z,13.13
2023-03-07T06:00:33.496Z,13.30
2023-03-07T06:03:04.935Z,13.77
2023-03-07T06:05:33.353Z,12.87
2023-03-07T06:08:01.901Z,12.80
2023-03-07T06:10:30.477Z,11.67
2023-03-07T06:12:59.884Z,12.33
2023-03-07T06:15:28.482Z,11.00
2023-03-07T06:17:57.063Z,14.07
2023-03-07T06:20:25.781Z,16.27
2023-03-07T06:22:53.737Z,12.80
2023-03-07T06:25:22.751Z,13.17
2023-03-07T06:27:51.246Z,12.57
2023-03-07T06:30:19.999Z,15.97
2023-03-07T06:32:47.943Z,15.70
2023-03-07T06:35:16.385Z,15.33
2023-03-07T06:37:44.917Z,12.17
2023-03-07T06:40:13.303Z,15.70
2023-03-07T06:42:41.467Z,13.60
2023-03-07T06:45:10.379Z,11.17
2023-03-07T06:47:38.460Z,10.43
2023-03-07T06:50:07.250Z,9.03
2023-03-07T06:52:35.842Z,8.67
2023-03-07T06:55:03.911Z,9.03
2023-03-07T06:57:34.046Z,8.30
2023-03-07T07:00:03.517Z,7.57
2023-03-07T07:02:32.827Z,8.77
2023-03-07T07:05:01.428Z,7.97
2023-03-07T07:07:30.481Z,9.73
2023-03-07T07:09:59.082Z,10.43
2023-03-07T07:12:27.545Z,8.13
2023-03-07T07:14:55.855Z,6.60
2023-03-07T07:17:25.019Z,7.83
2023-03-07T07:19:53.596Z,8.40
2023-03-07T07:22:22.093Z,8.67
2023-03-07T07:24:50.976Z,7.10
2023-03-07T07:27:20.377Z,8.17
2023-03-07T07:29:48.448Z,8.43
2023-03-07T07:32:16.927Z,8.20
2023-03-07T07:34:45.055Z,8.53
2023-03-07T07:37:13.590Z,7.90
2023-03-07T07:39:43.224Z,7.47
2023-03-07T07:42:11.643Z,7.27
2023-03-07T07:44:40.601Z,7.83
2023-03-07T07:47:09.259Z,7.60
2023-03-07T07:49:37.887Z,10.83
2023-03-07T07:52:06.080Z,8.67
2023-03-07T07:54:34.819Z,7.77
2023-03-07T07:57:03.223Z,10.17
2023-03-07T07:59:33.521Z,9.27
2023-03-07T08:02:02.281Z,9.30
2023-03-07T08:04:30.315Z,9.07
2023-03-07T08:06:58.150Z,8.47
2023-03-07T08:09:26.724Z,8.60
2023-03-07T08:11:55.425Z,9.00
2023-03-07T08:14:23.685Z,8.57
2023-03-07T08:16:51.668Z,8.40
2023-03-07T08:19:20.146Z,7.57
2023-03-07T08:21:48.622Z,8.80
2023-03-07T08:24:17.261Z,9.67
2023-03-07T08:26:45.417Z,9.67
2023-03-07T08:29:14.627Z,10.43
2023-03-07T08:31:46.138Z,10.20
2023-03-07T08:34:14.817Z,9.40
2023-03-07T08:36:43.505Z,7.13
2023-03-07T08:39:12.589Z,8.33
2023-03-07T08:41:40.992Z,9.57
2023-03-07T08:44:09.764Z,8.77
2023-03-07T08:46:38.480Z,9.43
2023-03-07T08:49:06.887Z,8.80
2023-03-07T08:51:35.555Z,7.70
2023-03-07T08:54:04.105Z,8.43
2023-03-07T08:56:32.005Z,12.17
2023-03-07T08:59:00.869Z,9.20
2023-03-07T09:01:29.784Z,7.63
2023-03-07T09:03:58.601Z,7.87
2023-03-07T09:06:26.596Z,6.43
2023-03-07T09:08:55.135Z,5.83
2023-03-07T09:11:23.888Z,4.70
2023-03-07T09:13:53.385Z,6.10
2023-03-07T09:16:22.557Z,6.57
2023-03-07T09:18:51.206Z,6.07
2023-03-07T09:21:19.123Z,5.97
2023-03-07T09:23:47.550Z,5.53
2023-03-07T09:26:15.700Z,4.73
2023-03-07T09:28:44.734Z,6.00
2023-03-07T09:31:14.515Z,5.57
2023-03-07T09:33:44.727Z,6.37
2023-03-07T09:36:13.980Z,5.57
2023-03-07T09:38:42.932Z,4.57
2023-03-07T09:41:15.898Z,4.97
2023-03-07T09:43:51.846Z,5.07
2023-03-07T09:46:24.694Z,5.83
2023-03-07T09:48:58.370Z,4.83
2023-03-07T09:51:28.060Z,5.40
2023-03-07T09:54:00.939Z,5.37
2023-03-07T09:56:30.889Z,6.23
2023-03-07T09:59:02.544Z,5.60
2023-03-07T10:01:32.215Z,5.00
2023-03-07T10:04:05.257Z,5.20
2023-03-07T10:06:34.657Z,6.03
2023-03-07T10:09:05.469Z,5.23
2023-03-07T10:11:38.148Z,6.43
2023-03-07T10:14:23.242Z,6.80
2023-03-07T10:16:53.007Z,6.20
2023-03-07T10:19:35.061Z,5.67
2023-03-07T10:22:08.305Z,5.33
2023-03-07T10:24:55.147Z,5.30
2023-03-07T10:27:24.733Z,5.50
2023-03-07T10:29:54.510Z,5.10
2023-03-07T10:32:24.691Z,5.43
2023-03-07T10:35:11.257Z,4.87
2023-03-07T10:37:53.499Z,5.27
2023-03-07T10:40:29.317Z,5.30
2023-03-07T10:42:58.377Z,4.27
2023-03-07T10:45:28.048Z,6.13
2023-03-07T10:47:56.668Z,4.97
2023-03-07T10:50:43.203Z,5.43
2023-03-07T10:53:13.174Z,4.70
2023-03-07T10:55:45.289Z,5.27
2023-03-07T10:58:21.524Z,4.77
2023-03-07T11:00:50.950Z,4.60
2023-03-07T11:03:31.197Z,3.57
2023-03-07T11:06:00.745Z,4.93
2023-03-07T11:08:36.899Z,4.53
2023-03-07T11:11:06.279Z,4.30
2023-03-07T11:13:35.479Z,3.40
2023-03-07T11:16:23.692Z,3.80
2023-03-07T11:18:52.556Z,3.83
2023-03-07T11:21:22.756Z,3.97
2023-03-07T11:23:52.173Z,3.97
2023-03-07T11:26:24.021Z,2.60
2023-03-07T11:29:09.136Z,2.40
2023-03-07T11:31:57.100Z,2.40
2023-03-07T11:34:30.233Z,2.33
2023-03-07T11:37:00.115Z,2.27
2023-03-07T11:39:39.171Z,3.37
2023-03-07T11:42:14.758Z,2.80
2023-03-07T11:44:56.928Z,2.80
2023-03-07T11:47:26.920Z,2.63
2023-03-07T11:49:56.940Z,2.83
2023-03-07T11:52:38.968Z,2.23
2023-03-07T11:55:17.908Z,1.80
2023-03-07T11:57:47.775Z,2.27
2023-03-07T12:00:18.890Z,1.83
2023-03-07T12:02:54.916Z,2.77
2023-03-07T12:05:25.350Z,2.10
2023-03-07T12:08:05.057Z,1.83
2023-03-07T12:10:47.591Z,1.93
2023-03-07T12:13:23.408Z,1.93
2023-03-07T12:15:56.264Z,1.80
2023-03-07T12:18:25.768Z,2.47
2023-03-07T12:20:55.863Z,2.90
2023-03-07T12:23:25.838Z,3.30
2023-03-07T12:25:58.022Z,3.43
2023-03-07T12:28:27.786Z,2.93
2023-03-07T12:31:01.120Z,2.50
2023-03-07T12:33:31.660Z,1.60
2023-03-07T12:36:02.051Z,3.07
2023-03-07T12:38:38.262Z,1.90
2023-03-07T12:41:14.730Z,2.53
2023-03-07T12:43:44.945Z,2.17
2023-03-07T12:46:21.215Z,1.47
2023-03-07T12:48:51.955Z,1.87
2023-03-07T12:51:22.269Z,1.93
2023-03-07T12:53:52.741Z,1.67
2023-03-07T12:56:23.042Z,2.07
2023-03-07T12:58:58.439Z,2.50
2023-03-07T13:11:19.273Z,2.98
2023-03-07T13:13:50.992Z,1.40
2023-03-07T13:16:36.368Z,1.47
2023-03-07T13:19:24.778Z,1.30
2023-03-07T13:21:52.790Z,1.50
2023-03-07T13:24:35.573Z,1.80
2023-03-07T13:27:22.206Z,2.57
2023-03-07T13:30:10.859Z,1.90
2023-03-07T13:32:56.024Z,2.30
2023-03-07T13:35:31.334Z,1.67
2023-03-07T13:38:03.013Z,1.53
2023-03-07T13:40:39.020Z,2.10
2023-03-07T13:43:09.118Z,1.70
2023-03-07T13:45:42.218Z,1.70
2023-03-07T13:48:15.886Z,2.17
2023-03-07T13:50:46.005Z,1.70
2023-03-07T13:53:28.002Z,2.13
2023-03-07T13:55:58.012Z,1.83
2023-03-07T13:58:36.637Z,1.93
2023-03-07T14:01:06.717Z,2.07
2023-03-07T14:03:39.645Z,2.10
2023-03-07T14:06:12.536Z,1.87
2023-03-07T14:08:41.370Z,2.33
2023-03-07T14:11:11.542Z,2.27
2023-03-07T14:13:47.715Z,2.60
2023-03-07T14:16:19.803Z,2.10
2023-03-07T14:18:52.773Z,1.60
2023-03-07T14:21:23.100Z,2.83
2023-03-07T14:24:08.238Z,2.50
2023-03-07T14:26:46.465Z,2.27
2023-03-07T14:29:23.398Z,2.37
2023-03-07T14:31:57.673Z,1.90
2023-03-07T14:34:27.815Z,2.10
2023-03-07T14:37:00.495Z,2.10
2023-03-07T14:39:39.702Z,1.57
2023-03-07T14:42:09.832Z,3.37
2023-03-07T14:44:39.873Z,2.40
2023-03-07T14:47:11.893Z,1.50
2023-03-07T14:49:42.023Z,2.23
2023-03-07T14:52:21.322Z,2.60
2023-03-07T14:54:42.053Z,3.03
2023-03-07T14:57:12.166Z,3.43
2023-03-07T14:59:40.953Z,3.53
2023-03-07T15:02:11.523Z,2.50
2023-03-07T15:04:41.516Z,2.50
2023-03-07T15:07:12.083Z,8.90
2023-03-07T15:09:40.786Z,2.70
2023-03-07T15:12:10.370Z,1.93
2023-03-07T15:14:45.112Z,2.00
2023-03-07T15:17:15.067Z,2.73
2023-03-07T15:19:53.806Z,2.10
2023-03-07T15:22:26.186Z,1.90
2023-03-07T15:24:55.071Z,2.10
2023-03-07T15:27:25.493Z,2.30
2023-03-07T15:29:54.220Z,2.00
2023-03-07T15:32:36.457Z,2.00
2023-03-07T15:35:06.460Z,2.53
2023-03-07T15:37:35.582Z,3.17
2023-03-07T15:40:05.806Z,3.30
2023-03-07T15:42:34.917Z,3.20
2023-03-07T15:45:04.343Z,2.70
2023-03-07T15:47:33.868Z,4.00
2023-03-07T15:50:04.671Z,2.60
2023-03-07T15:52:34.447Z,2.80
2023-03-07T15:55:06.039Z,2.80
2023-03-07T15:57:42.111Z,2.67
2023-03-07T16:00:14.996Z,2.40
2023-03-07T16:02:44.786Z,2.17
2023-03-07T16:05:24.071Z,2.43
2023-03-07T16:07:53.337Z,3.00
2023-03-07T16:10:22.694Z,3.53
2023-03-07T16:20:20.272Z,2.75
2023-03-07T16:22:49.198Z,2.73
2023-03-07T16:25:17.718Z,2.93
2023-03-07T16:27:48.451Z,3.60
2023-03-07T16:30:17.924Z,4.43
2023-03-07T16:32:46.584Z,3.30
2023-03-07T16:35:16.555Z,3.50
2023-03-07T16:37:44.421Z,3.03
2023-03-07T16:40:13.775Z,3.50
2023-03-07T16:45:10.954Z,3.40
2023-03-07T16:47:39.874Z,3.97
2023-03-07T16:50:10.068Z,2.63
2023-03-07T16:52:38.588Z,2.67
2023-03-07T16:55:06.863Z,2.60
2023-03-07T16:57:35.072Z,2.50
2023-03-07T17:00:04.510Z,2.97
2023-03-07T17:02:32.843Z,3.27
2023-03-07T17:05:01.404Z,2.27
2023-03-07T17:07:29.327Z,2.77
2023-03-07T17:09:59.185Z,2.73
2023-03-07T17:12:27.892Z,3.00
2023-03-07T17:14:57.496Z,2.50
2023-03-07T17:17:26.960Z,3.27
2023-03-07T17:19:55.168Z,2.70
2023-03-07T17:22:23.175Z,3.27
2023-03-07T17:24:52.732Z,2.60
2023-03-07T17:27:21.463Z,2.40
2023-03-07T17:29:51.561Z,2.33
2023-03-07T17:32:20.312Z,2.07
2023-03-07T17:34:49.030Z,3.77
2023-03-07T17:37:17.867Z,2.53
2023-03-07T17:39:46.621Z,2.87
2023-03-07T17:42:15.419Z,2.40
2023-03-07T17:44:44.187Z,4.00
2023-03-07T17:47:13.012Z,4.60
2023-03-07T17:49:41.242Z,5.10
2023-03-07T17:52:10.164Z,4.07
2023-03-07T17:54:39.642Z,4.20
2023-03-07T17:59:36.522Z,3.10
2023-03-07T18:02:06.178Z,4.70
2023-03-07T18:04:34.380Z,4.20
2023-03-07T18:07:03.081Z,3.60
2023-03-07T18:09:32.173Z,4.30
2023-03-07T18:12:00.388Z,4.40
2023-03-07T18:14:29.191Z,5.47
2023-03-07T18:16:57.995Z,6.53
2023-03-07T18:19:27.436Z,4.03
2023-03-07T18:21:56.145Z,3.00
2023-03-07T18:24:30.378Z,2.93
2023-03-07T18:27:03.775Z,3.93
2023-03-07T18:29:32.418Z,5.07
2023-03-07T18:32:01.497Z,4.47
2023-03-07T18:34:29.984Z,4.97
2023-03-07T18:36:58.667Z,5.03
2023-03-07T18:39:27.930Z,3.67
2023-03-07T18:41:56.340Z,4.60
2023-03-07T18:44:25.030Z,4.37
2023-03-07T18:46:53.545Z,5.13
2023-03-07T18:49:22.184Z,4.60
2023-03-07T18:51:50.586Z,10.77
2023-03-07T18:54:19.265Z,4.93
2023-03-07T18:56:48.498Z,5.00
2023-03-07T18:59:17.959Z,4.27
2023-03-07T19:04:14.473Z,2.95
2023-03-07T19:06:45.869Z,2.93
2023-03-07T19:09:17.942Z,4.53
2023-03-07T19:11:46.159Z,5.20
2023-03-07T19:14:15.612Z,7.87
2023-03-07T19:19:11.059Z,10.45
2023-03-07T19:21:39.759Z,16.63
2023-03-07T19:24:09.242Z,11.70
2023-03-07T19:26:37.724Z,12.23
2023-03-07T19:29:06.309Z,15.67
2023-03-07T19:31:35.805Z,11.00
2023-03-07T19:36:32.975Z,11.38
2023-03-07T19:39:01.670Z,10.67
2023-03-07T19:41:31.418Z,25.50
2023-03-07T19:44:00.600Z,40.67
2023-03-07T19:46:29.157Z,20.67
2023-03-07T19:48:57.709Z,16.50
2023-03-07T19:51:27.596Z,27.60
2023-03-07T19:53:57.659Z,14.57
2023-03-07T19:56:30.933Z,16.30
2023-03-07T19:59:00.981Z,14.63
2023-03-07T20:01:30.793Z,13.43
2023-03-07T20:03:59.275Z,10.17
2023-03-07T20:06:29.644Z,10.30
2023-03-07T20:08:58.899Z,13.50
2023-03-07T20:11:28.048Z,10.23
2023-03-07T20:13:59.042Z,9.40
2023-03-07T20:16:29.747Z,8.87
2023-03-07T20:18:59.252Z,9.37
2023-03-07T20:21:28.778Z,13.73
2023-03-07T20:23:58.990Z,10.60
2023-03-07T20:26:28.535Z,13.30
2023-03-07T20:28:57.615Z,14.90
2023-03-07T20:31:25.665Z,17.10
2023-03-07T20:33:54.274Z,11.33
2023-03-07T20:36:24.383Z,11.60
2023-03-07T20:38:54.255Z,11.07
2023-03-07T20:41:23.854Z,10.57
2023-03-07T20:46:19.308Z,10.53
2023-03-07T20:48:48.027Z,12.03
2023-03-07T20:51:21.380Z,17.30
2023-03-07T20:53:51.140Z,17.23
2023-03-07T20:56:20.036Z,13.93
2023-03-07T20:58:48.556Z,14.90
2023-03-07T21:01:18.365Z,13.43
2023-03-07T21:03:48.552Z,15.10
2023-03-07T21:06:17.399Z,13.87
2023-03-07T21:08:47.698Z,15.23
2023-03-07T21:11:17.366Z,19.93
2023-03-07T21:16:24.096Z,20.37
2023-03-07T21:18:52.778Z,21.60
2023-03-07T21:21:22.909Z,18.83
2023-03-07T21:23:51.795Z,16.00
2023-03-07T21:26:21.656Z,26.77
2023-03-07T21:28:52.619Z,18.83
2023-03-07T21:31:25.411Z,19.17
2023-03-07T21:33:55.720Z,14.97
2023-03-07T21:36:25.092Z,12.43
2023-03-07T21:38:53.185Z,10.63
2023-03-07T21:41:23.774Z,11.43
2023-03-07T21:43:53.033Z,13.83
2023-03-07T21:46:21.374Z,15.60
2023-03-07T21:48:50.791Z,17.67
2023-03-07T21:51:19.767Z,19.13
2023-03-07T21:53:47.793Z,19.30
2023-03-07T21:56:20.829Z,24.23
2023-03-07T21:58:50.767Z,22.93
2023-03-07T22:01:20.818Z,31.17
2023-03-07T22:03:50.620Z,28.13
2023-03-07T22:08:46.288Z,30.27
2023-03-07T22:11:15.185Z,33.93
2023-03-07T22:13:43.580Z,36.47
2023-03-07T22:16:13.332Z,31.77
2023-03-07T22:21:09.495Z,37.78
2023-03-07T22:23:38.397Z,40.23
2023-03-07T22:26:07.723Z,41.77
2023-03-07T22:28:36.721Z,42.13
2023-03-07T22:31:06.135Z,42.23
2023-03-07T22:33:34.907Z,44.67
2023-03-07T22:36:05.141Z,40.47
2023-03-07T22:38:34.050Z,42.30
2023-03-07T22:41:02.960Z,35.43
2023-03-07T22:43:32.331Z,40.30
2023-03-07T22:46:01.196Z,42.13
2023-03-07T22:48:29.758Z,41.27
2023-03-07T22:50:57.980Z,38.07
2023-03-07T22:53:28.103Z,37.43
2023-03-07T22:55:55.986Z,27.27
2023-03-07T22:58:24.570Z,22.27
2023-03-07T23:00:53.558Z,22.60
2023-03-07T23:03:22.175Z,17.27
2023-03-07T23:05:50.624Z,18.27
2023-03-07T23:08:19.136Z,18.50
2023-03-07T23:10:47.953Z,15.13
2023-03-07T23:13:17.272Z,14.73
2023-03-07T23:15:45.981Z,13.43
2023-03-07T23:18:14.198Z,15.83
2023-03-07T23:20:42.109Z,19.43
2023-03-07T23:23:10.868Z,16.33
2023-03-07T23:25:42.930Z,15.00
2023-03-07T23:28:12.292Z,17.10
2023-03-07T23:30:40.492Z,17.57
2023-03-07T23:33:08.856Z,17.73
2023-03-07T23:35:37.383Z,20.70
2023-03-07T23:38:05.836Z,19.07
2023-03-07T23:40:37.158Z,19.90
2023-03-07T23:43:04.490Z,18.23
2023-03-07T23:45:33.761Z,20.10
2023-03-07T23:48:01.670Z,15.00
2023-03-07T23:50:30.095Z,16.97
2023-03-07T23:52:58.637Z,15.73
2023-03-07T23:55:27.016Z,16.47
2023-03-07T23:57:54.929Z,16.80
